sensor_id;sensor_type;location;lat;lon;timestamp;P1;durP1;ratioP1;P2;durP2;ratioP2
5393;SDS011;2720;52.396;10.064;2022-10-16T00:01:06;5.53;;;2.10;;
5393;SDS011;2720;52.396;10.064;2022-10-16T00:03:34;2.80;;;1.93;;
5393;SDS011;2720;52.396;10.064;2022-10-16T00:06:01;9.60;;;1.80;;
5393;SDS011;2720;52.396;10.064;2022-10-16T00:08:29;2.80;;;1.63;;
5393;SDS011;2720;52.396;10.064;2022-10-16T00:10:59;5.77;;;1.63;;
5393;SDS011;2720;52.396;10.064;2022-10-16T00:13:27;8.63;;;1.80;;
5393;SDS011;2720;52.396;10.064;2022-10-16T00:15:56;2.77;;;1.27;;
5393;SDS011;2720;52.396;10.064;2022-10-16T00:18:24;3.27;;;1.13;;
5393;SDS011;2720;52.396;10.064;2022-10-16T00:20:52;1.37;;;1.00;;
5393;SDS011;2720;52.396;10.064;2022-10-16T00:23:20;5.17;;;1.70;;
5393;SDS011;2720;52.396;10.064;2022-10-16T00:25:54;5.80;;;1.90;;
5393;SDS011;2720;52.396;10.064;2022-10-16T00:28:21;5.13;;;1.43;;
5393;SDS011;2720;52.396;10.064;2022-10-16T00:30:48;4.03;;;1.70;;
5393;SDS011;2720;52.396;10.064;2022-10-16T00:33:17;2.40;;;1.13;;
5393;SDS011;2720;52.396;10.064;2022-10-16T00:35:44;5.37;;;1.90;;
5393;SDS011;2720;52.396;10.064;2022-10-16T00:38:11;3.30;;;1.37;;
5393;SDS011;2720;52.396;10.064;2022-10-16T00:40:38;4.37;;;1.33;;
5393;SDS011;2720;52.396;10.064;2022-10-16T00:43:09;8.00;;;1.17;;
5393;SDS011;2720;52.396;10.064;2022-10-16T00:45:39;2.20;;;1.13;;
5393;SDS011;2720;52.396;10.064;2022-10-16T00:48:07;5.60;;;1.27;;
5393;SDS011;2720;52.396;10.064;2022-10-16T00:50:41;1.43;;;1.33;;
5393;SDS011;2720;52.396;10.064;2022-10-16T00:53:08;5.50;;;1.93;;
5393;SDS011;2720;52.396;10.064;2022-10-16T00:55:38;5.30;;;1.47;;
5393;SDS011;2720;52.396;10.064;2022-10-16T00:58:05;3.43;;;1.30;;
5393;SDS011;2720;52.396;10.064;2022-10-16T01:00:32;3.40;;;1.50;;
5393;SDS011;2720;52.396;10.064;2022-10-16T01:02:59;1.67;;;0.90;;
5393;SDS011;2720;52.396;10.064;2022-10-16T01:05:30;2.40;;;1.00;;
5393;SDS011;2720;52.396;10.064;2022-10-16T01:08:03;1.23;;;1.10;;
5393;SDS011;2720;52.396;10.064;2022-10-16T01:10:39;1.10;;;1.10;;
5393;SDS011;2720;52.396;10.064;2022-10-16T01:13:13;2.30;;;1.23;;
5393;SDS011;2720;52.396;10.064;2022-10-16T01:15:45;1.30;;;1.20;;
5393;SDS011;2720;52.396;10.064;2022-10-16T01:18:17;1.17;;;1.17;;
5393;SDS011;2720;52.396;10.064;2022-10-16T01:20:49;4.47;;;1.00;;
5393;SDS011;2720;52.396;10.064;2022-10-16T01:23:25;2.03;;;1.20;;
5393;SDS011;2720;52.396;10.064;2022-10-16T01:29:03;2.20;;;1.30;;
5393;SDS011;2720;52.396;10.064;2022-10-16T01:31:36;2.00;;;1.40;;
5393;SDS011;2720;52.396;10.064;2022-10-16T01:34:09;5.80;;;1.40;;
5393;SDS011;2720;52.396;10.064;2022-10-16T01:36:41;4.07;;;1.13;;
5393;SDS011;2720;52.396;10.064;2022-10-16T01:39:13;2.50;;;2.30;;
5393;SDS011;2720;52.396;10.064;2022-10-16T01:41:46;1.37;;;1.27;;
5393;SDS011;2720;52.396;10.064;2022-10-16T01:44:19;2.40;;;1.40;;
5393;SDS011;2720;52.396;10.064;2022-10-16T01:46:51;1.13;;;1.13;;
5393;SDS011;2720;52.396;10.064;2022-10-16T01:49:20;2.20;;;1.37;;
5393;SDS011;2720;52.396;10.064;2022-10-16T01:51:50;1.60;;;1.50;;
5393;SDS011;2720;52.396;10.064;2022-10-16T01:54:21;1.70;;;1.60;;
5393;SDS011;2720;52.396;10.064;2022-10-16T01:56:52;2.63;;;1.37;;
5393;SDS011;2720;52.396;10.064;2022-10-16T01:59:23;1.97;;;1.87;;
5393;SDS011;2720;52.396;10.064;2022-10-16T02:01:54;0.90;;;0.90;;
5393;SDS011;2720;52.396;10.064;2022-10-16T02:04:26;2.47;;;1.60;;
5393;SDS011;2720;52.396;10.064;2022-10-16T02:06:55;1.13;;;1.13;;
5393;SDS011;2720;52.396;10.064;2022-10-16T02:09:22;8.73;;;1.53;;
5393;SDS011;2720;52.396;10.064;2022-10-16T02:11:49;1.90;;;1.70;;
5393;SDS011;2720;52.396;10.064;2022-10-16T02:14:19;1.70;;;1.43;;
5393;SDS011;2720;52.396;10.064;2022-10-16T02:16:50;1.70;;;1.60;;
5393;SDS011;2720;52.396;10.064;2022-10-16T02:19:17;2.23;;;2.13;;
5393;SDS011;2720;52.396;10.064;2022-10-16T02:21:46;1.70;;;1.60;;
5393;SDS011;2720;52.396;10.064;2022-10-16T02:24:17;2.30;;;2.10;;
5393;SDS011;2720;52.396;10.064;2022-10-16T02:26:56;2.93;;;2.63;;
5393;SDS011;2720;52.396;10.064;2022-10-16T02:29:33;3.17;;;2.87;;
5393;SDS011;2720;52.396;10.064;2022-10-16T02:32:07;3.93;;;3.60;;
5393;SDS011;2720;52.396;10.064;2022-10-16T02:34:36;3.90;;;3.50;;
5393;SDS011;2720;52.396;10.064;2022-10-16T02:37:05;5.33;;;3.57;;
5393;SDS011;2720;52.396;10.064;2022-10-16T02:39:33;5.67;;;3.23;;
5393;SDS011;2720;52.396;10.064;2022-10-16T02:42:00;7.83;;;3.37;;
5393;SDS011;2720;52.396;10.064;2022-10-16T02:44:27;20.63;;;3.60;;
5393;SDS011;2720;52.396;10.064;2022-10-16T02:46:55;5.70;;;3.30;;
5393;SDS011;2720;52.396;10.064;2022-10-16T02:49:23;4.63;;;2.63;;
5393;SDS011;2720;52.396;10.064;2022-10-16T02:51:50;4.83;;;4.10;;
5393;SDS011;2720;52.396;10.064;2022-10-16T02:54:17;5.37;;;3.27;;
5393;SDS011;2720;52.396;10.064;2022-10-16T02:56:44;8.93;;;3.70;;
5393;SDS011;2720;52.396;10.064;2022-10-16T02:59:11;8.83;;;3.83;;
5393;SDS011;2720;52.396;10.064;2022-10-16T03:01:38;4.97;;;3.07;;
5393;SDS011;2720;52.396;10.064;2022-10-16T03:04:05;3.53;;;3.20;;
5393;SDS011;2720;52.396;10.064;2022-10-16T03:06:33;4.00;;;3.00;;
5393;SDS011;2720;52.396;10.064;2022-10-16T03:09:01;8.70;;;3.73;;
5393;SDS011;2720;52.396;10.064;2022-10-16T03:11:28;4.57;;;3.67;;
5393;SDS011;2720;52.396;10.064;2022-10-16T03:13:54;5.50;;;3.23;;
5393;SDS011;2720;52.396;10.064;2022-10-16T03:16:21;6.20;;;3.37;;
5393;SDS011;2720;52.396;10.064;2022-10-16T03:18:48;6.60;;;3.63;;
5393;SDS011;2720;52.396;10.064;2022-10-16T03:21:16;5.30;;;3.50;;
5393;SDS011;2720;52.396;10.064;2022-10-16T03:23:44;3.57;;;3.27;;
5393;SDS011;2720;52.396;10.064;2022-10-16T03:26:11;3.87;;;3.40;;
5393;SDS011;2720;52.396;10.064;2022-10-16T03:28:38;5.43;;;3.03;;
5393;SDS011;2720;52.396;10.064;2022-10-16T03:31:05;4.40;;;3.30;;
5393;SDS011;2720;52.396;10.064;2022-10-16T03:33:33;5.00;;;4.10;;
5393;SDS011;2720;52.396;10.064;2022-10-16T03:36:00;4.20;;;2.93;;
5393;SDS011;2720;52.396;10.064;2022-10-16T03:38:27;3.40;;;3.10;;
5393;SDS011;2720;52.396;10.064;2022-10-16T03:40:55;3.43;;;3.13;;
5393;SDS011;2720;52.396;10.064;2022-10-16T03:43:22;5.17;;;3.50;;
5393;SDS011;2720;52.396;10.064;2022-10-16T03:45:49;3.67;;;3.40;;
5393;SDS011;2720;52.396;10.064;2022-10-16T03:48:17;5.43;;;4.37;;
5393;SDS011;2720;52.396;10.064;2022-10-16T03:50:43;3.80;;;3.40;;
5393;SDS011;2720;52.396;10.064;2022-10-16T03:53:11;7.70;;;3.43;;
5393;SDS011;2720;52.396;10.064;2022-10-16T03:55:38;4.67;;;3.03;;
5393;SDS011;2720;52.396;10.064;2022-10-16T03:58:08;5.53;;;3.43;;
5393;SDS011;2720;52.396;10.064;2022-10-16T04:00:35;5.43;;;3.53;;
5393;SDS011;2720;52.396;10.064;2022-10-16T04:03:05;4.53;;;4.07;;
5393;SDS011;2720;52.396;10.064;2022-10-16T04:05:32;8.07;;;3.73;;
5393;SDS011;2720;52.396;10.064;2022-10-16T04:08:00;4.63;;;3.37;;
5393;SDS011;2720;52.396;10.064;2022-10-16T04:10:27;3.30;;;2.83;;
5393;SDS011;2720;52.396;10.064;2022-10-16T04:12:54;4.60;;;3.10;;
5393;SDS011;2720;52.396;10.064;2022-10-16T04:15:22;4.47;;;3.20;;
5393;SDS011;2720;52.396;10.064;2022-10-16T04:17:50;6.80;;;2.97;;
5393;SDS011;2720;52.396;10.064;2022-10-16T04:20:18;2.93;;;2.73;;
5393;SDS011;2720;52.396;10.064;2022-10-16T04:22:45;6.10;;;3.10;;
5393;SDS011;2720;52.396;10.064;2022-10-16T04:25:12;8.40;;;3.43;;
5393;SDS011;2720;52.396;10.064;2022-10-16T04:27:39;3.10;;;2.70;;
5393;SDS011;2720;52.396;10.064;2022-10-16T04:30:06;10.83;;;3.23;;
5393;SDS011;2720;52.396;10.064;2022-10-16T04:32:35;3.70;;;2.87;;
5393;SDS011;2720;52.396;10.064;2022-10-16T04:35:02;9.77;;;3.20;;
5393;SDS011;2720;52.396;10.064;2022-10-16T04:37:29;3.97;;;2.63;;
5393;SDS011;2720;52.396;10.064;2022-10-16T04:39:56;9.00;;;3.20;;
5393;SDS011;2720;52.396;10.064;2022-10-16T04:42:23;3.33;;;3.03;;
5393;SDS011;2720;52.396;10.064;2022-10-16T04:44:50;2.47;;;2.27;;
5393;SDS011;2720;52.396;10.064;2022-10-16T04:47:17;7.47;;;2.73;;
5393;SDS011;2720;52.396;10.064;2022-10-16T04:49:46;6.97;;;2.67;;
5393;SDS011;2720;52.396;10.064;2022-10-16T04:52:13;5.50;;;2.60;;
5393;SDS011;2720;52.396;10.064;2022-10-16T04:54:40;4.23;;;2.60;;
5393;SDS011;2720;52.396;10.064;2022-10-16T04:57:07;3.70;;;2.73;;
5393;SDS011;2720;52.396;10.064;2022-10-16T04:59:34;4.67;;;3.70;;
5393;SDS011;2720;52.396;10.064;2022-10-16T05:02:01;8.53;;;2.90;;
5393;SDS011;2720;52.396;10.064;2022-10-16T05:04:27;6.43;;;3.20;;
5393;SDS011;2720;52.396;10.064;2022-10-16T05:06:56;12.30;;;4.17;;
5393;SDS011;2720;52.396;10.064;2022-10-16T05:09:23;5.33;;;2.60;;
5393;SDS011;2720;52.396;10.064;2022-10-16T05:11:50;3.43;;;3.00;;
5393;SDS011;2720;52.396;10.064;2022-10-16T05:14:17;4.40;;;3.30;;
5393;SDS011;2720;52.396;10.064;2022-10-16T05:16:44;5.07;;;3.50;;
5393;SDS011;2720;52.396;10.064;2022-10-16T05:19:13;3.80;;;3.23;;
5393;SDS011;2720;52.396;10.064;2022-10-16T05:21:40;5.77;;;3.10;;
5393;SDS011;2720;52.396;10.064;2022-10-16T05:24:08;7.67;;;3.70;;
5393;SDS011;2720;52.396;10.064;2022-10-16T05:26:35;4.83;;;3.90;;
5393;SDS011;2720;52.396;10.064;2022-10-16T05:29:02;9.37;;;4.43;;
5393;SDS011;2720;52.396;10.064;2022-10-16T05:31:29;5.37;;;3.70;;
5393;SDS011;2720;52.396;10.064;2022-10-16T05:33:58;6.90;;;3.27;;
5393;SDS011;2720;52.396;10.064;2022-10-16T05:36:25;5.50;;;4.23;;
5393;SDS011;2720;52.396;10.064;2022-10-16T05:38:52;9.63;;;3.73;;
5393;SDS011;2720;52.396;10.064;2022-10-16T05:41:20;6.23;;;4.73;;
5393;SDS011;2720;52.396;10.064;2022-10-16T05:43:50;8.70;;;4.93;;
5393;SDS011;2720;52.396;10.064;2022-10-16T05:46:17;6.13;;;3.87;;
5393;SDS011;2720;52.396;10.064;2022-10-16T05:48:44;5.70;;;4.33;;
5393;SDS011;2720;52.396;10.064;2022-10-16T05:51:11;8.90;;;5.00;;
5393;SDS011;2720;52.396;10.064;2022-10-16T05:53:39;6.23;;;3.93;;
5393;SDS011;2720;52.396;10.064;2022-10-16T05:56:08;4.13;;;3.73;;
5393;SDS011;2720;52.396;10.064;2022-10-16T05:58:38;5.57;;;4.70;;
5393;SDS011;2720;52.396;10.064;2022-10-16T06:01:07;9.33;;;4.67;;
5393;SDS011;2720;52.396;10.064;2022-10-16T06:03:36;4.73;;;4.33;;
5393;SDS011;2720;52.396;10.064;2022-10-16T06:06:09;7.10;;;4.33;;
5393;SDS011;2720;52.396;10.064;2022-10-16T06:08:38;8.43;;;4.53;;
5393;SDS011;2720;52.396;10.064;2022-10-16T06:11:06;7.70;;;3.47;;
5393;SDS011;2720;52.396;10.064;2022-10-16T06:13:34;9.23;;;4.40;;
5393;SDS011;2720;52.396;10.064;2022-10-16T06:16:03;7.63;;;4.20;;
5393;SDS011;2720;52.396;10.064;2022-10-16T06:18:31;5.60;;;3.53;;
5393;SDS011;2720;52.396;10.064;2022-10-16T06:20:58;11.63;;;3.90;;
5393;SDS011;2720;52.396;10.064;2022-10-16T06:23:25;5.53;;;3.83;;
5393;SDS011;2720;52.396;10.064;2022-10-16T06:25:54;4.70;;;4.10;;
5393;SDS011;2720;52.396;10.064;2022-10-16T06:28:30;9.63;;;4.77;;
5393;SDS011;2720;52.396;10.064;2022-10-16T06:30:58;6.10;;;4.40;;
5393;SDS011;2720;52.396;10.064;2022-10-16T06:33:27;4.53;;;4.13;;
5393;SDS011;2720;52.396;10.064;2022-10-16T06:35:54;10.20;;;3.87;;
5393;SDS011;2720;52.396;10.064;2022-10-16T06:38:26;9.70;;;4.57;;
5393;SDS011;2720;52.396;10.064;2022-10-16T06:40:53;8.03;;;4.37;;
5393;SDS011;2720;52.396;10.064;2022-10-16T06:43:20;4.87;;;4.37;;
5393;SDS011;2720;52.396;10.064;2022-10-16T06:45:50;5.60;;;4.57;;
5393;SDS011;2720;52.396;10.064;2022-10-16T06:48:17;6.47;;;4.83;;
5393;SDS011;2720;52.396;10.064;2022-10-16T06:50:55;5.40;;;4.87;;
5393;SDS011;2720;52.396;10.064;2022-10-16T06:53:23;4.40;;;4.00;;
5393;SDS011;2720;52.396;10.064;2022-10-16T06:55:50;10.90;;;4.20;;
5393;SDS011;2720;52.396;10.064;2022-10-16T06:58:17;4.90;;;4.10;;
5393;SDS011;2720;52.396;10.064;2022-10-16T07:00:45;4.30;;;3.80;;
5393;SDS011;2720;52.396;10.064;2022-10-16T07:03:12;3.20;;;3.00;;
5393;SDS011;2720;52.396;10.064;2022-10-16T07:05:39;6.30;;;2.93;;
5393;SDS011;2720;52.396;10.064;2022-10-16T07:08:08;4.03;;;3.37;;
5393;SDS011;2720;52.396;10.064;2022-10-16T07:10:35;3.07;;;2.77;;
5393;SDS011;2720;52.396;10.064;2022-10-16T07:13:02;2.83;;;2.50;;
5393;SDS011;2720;52.396;10.064;2022-10-16T07:15:29;3.30;;;3.10;;
5393;SDS011;2720;52.396;10.064;2022-10-16T07:17:56;2.60;;;2.40;;
5393;SDS011;2720;52.396;10.064;2022-10-16T07:20:23;2.80;;;2.40;;
5393;SDS011;2720;52.396;10.064;2022-10-16T07:22:50;2.97;;;2.67;;
5393;SDS011;2720;52.396;10.064;2022-10-16T07:25:19;2.73;;;2.13;;
5393;SDS011;2720;52.396;10.064;2022-10-16T07:27:46;4.27;;;2.00;;
5393;SDS011;2720;52.396;10.064;2022-10-16T07:30:12;3.43;;;2.73;;
5393;SDS011;2720;52.396;10.064;2022-10-16T07:32:39;2.93;;;1.70;;
5393;SDS011;2720;52.396;10.064;2022-10-16T07:35:07;2.77;;;2.37;;
5393;SDS011;2720;52.396;10.064;2022-10-16T07:37:34;2.00;;;1.90;;
5393;SDS011;2720;52.396;10.064;2022-10-16T07:40:01;2.10;;;2.00;;
5393;SDS011;2720;52.396;10.064;2022-10-16T07:42:29;2.40;;;2.20;;
5393;SDS011;2720;52.396;10.064;2022-10-16T07:44:56;6.43;;;2.13;;
5393;SDS011;2720;52.396;10.064;2022-10-16T07:47:23;2.60;;;2.07;;
5393;SDS011;2720;52.396;10.064;2022-10-16T07:49:50;4.33;;;1.90;;
5393;SDS011;2720;52.396;10.064;2022-10-16T07:52:17;3.43;;;1.73;;
5393;SDS011;2720;52.396;10.064;2022-10-16T07:54:44;4.27;;;2.00;;
5393;SDS011;2720;52.396;10.064;2022-10-16T07:57:11;1.87;;;1.77;;
5393;SDS011;2720;52.396;10.064;2022-10-16T07:59:45;1.73;;;1.63;;
5393;SDS011;2720;52.396;10.064;2022-10-16T08:02:12;1.90;;;1.80;;
5393;SDS011;2720;52.396;10.064;2022-10-16T08:04:39;11.27;;;1.67;;
5393;SDS011;2720;52.396;10.064;2022-10-16T08:07:06;1.67;;;1.57;;
5393;SDS011;2720;52.396;10.064;2022-10-16T08:09:34;4.00;;;1.63;;
5393;SDS011;2720;52.396;10.064;2022-10-16T08:12:01;2.03;;;1.63;;
5393;SDS011;2720;52.396;10.064;2022-10-16T08:14:29;14.93;;;2.03;;
5393;SDS011;2720;52.396;10.064;2022-10-16T08:16:57;1.37;;;1.30;;
5393;SDS011;2720;52.396;10.064;2022-10-16T08:19:24;3.50;;;1.10;;
5393;SDS011;2720;52.396;10.064;2022-10-16T08:21:51;1.90;;;1.63;;
5393;SDS011;2720;52.396;10.064;2022-10-16T08:24:18;1.10;;;1.00;;
5393;SDS011;2720;52.396;10.064;2022-10-16T08:26:45;1.20;;;0.77;;
5393;SDS011;2720;52.396;10.064;2022-10-16T08:29:13;2.50;;;0.93;;
5393;SDS011;2720;52.396;10.064;2022-10-16T08:31:41;1.43;;;0.73;;
5393;SDS011;2720;52.396;10.064;2022-10-16T08:34:09;1.00;;;0.83;;
5393;SDS011;2720;52.396;10.064;2022-10-16T08:36:36;5.83;;;1.37;;
5393;SDS011;2720;52.396;10.064;2022-10-16T08:39:03;1.33;;;0.93;;
5393;SDS011;2720;52.396;10.064;2022-10-16T08:41:57;3.73;;;0.77;;
5393;SDS011;2720;52.396;10.064;2022-10-16T08:44:41;0.50;;;0.50;;
5393;SDS011;2720;52.396;10.064;2022-10-16T08:47:32;1.03;;;0.83;;
5393;SDS011;2720;52.396;10.064;2022-10-16T08:50:11;1.50;;;1.00;;
5393;SDS011;2720;52.396;10.064;2022-10-16T08:52:40;2.20;;;1.00;;
5393;SDS011;2720;52.396;10.064;2022-10-16T08:55:10;1.37;;;0.93;;
5393;SDS011;2720;52.396;10.064;2022-10-16T08:57:51;5.90;;;1.23;;
5393;SDS011;2720;52.396;10.064;2022-10-16T09:00:18;0.90;;;0.90;;
5393;SDS011;2720;52.396;10.064;2022-10-16T09:02:48;7.70;;;0.80;;
5393;SDS011;2720;52.396;10.064;2022-10-16T09:05:41;1.93;;;1.20;;
5393;SDS011;2720;52.396;10.064;2022-10-16T09:08:20;0.90;;;0.90;;
5393;SDS011;2720;52.396;10.064;2022-10-16T09:10:56;1.43;;;0.90;;
5393;SDS011;2720;52.396;10.064;2022-10-16T09:13:28;1.37;;;0.90;;
5393;SDS011;2720;52.396;10.064;2022-10-16T09:16:04;1.43;;;0.90;;
5393;SDS011;2720;52.396;10.064;2022-10-16T09:18:43;2.40;;;0.67;;
5393;SDS011;2720;52.396;10.064;2022-10-16T09:21:17;1.13;;;1.00;;
5393;SDS011;2720;52.396;10.064;2022-10-16T09:23:47;1.97;;;0.73;;
5393;SDS011;2720;52.396;10.064;2022-10-16T09:26:15;1.97;;;0.90;;
5393;SDS011;2720;52.396;10.064;2022-10-16T09:28:44;1.07;;;0.77;;
5393;SDS011;2720;52.396;10.064;2022-10-16T09:31:21;0.50;;;0.50;;
5393;SDS011;2720;52.396;10.064;2022-10-16T09:33:50;0.80;;;0.70;;
5393;SDS011;2720;52.396;10.064;2022-10-16T09:36:22;0.93;;;0.93;;
5393;SDS011;2720;52.396;10.064;2022-10-16T09:39:00;0.93;;;0.73;;
5393;SDS011;2720;52.396;10.064;2022-10-16T09:41:29;5.43;;;0.80;;
5393;SDS011;2720;52.396;10.064;2022-10-16T09:43:57;2.40;;;0.77;;
5393;SDS011;2720;52.396;10.064;2022-10-16T09:46:27;0.93;;;0.83;;
5393;SDS011;2720;52.396;10.064;2022-10-16T09:48:56;1.70;;;0.87;;
5393;SDS011;2720;52.396;10.064;2022-10-16T09:51:27;0.60;;;0.60;;
5393;SDS011;2720;52.396;10.064;2022-10-16T09:53:55;3.33;;;0.90;;
5393;SDS011;2720;52.396;10.064;2022-10-16T09:56:25;1.03;;;0.83;;
5393;SDS011;2720;52.396;10.064;2022-10-16T09:58:56;1.43;;;0.67;;
5393;SDS011;2720;52.396;10.064;2022-10-16T10:01:28;1.20;;;0.60;;
5393;SDS011;2720;52.396;10.064;2022-10-16T10:03:57;3.53;;;0.60;;
5393;SDS011;2720;52.396;10.064;2022-10-16T10:06:30;0.70;;;0.70;;
5393;SDS011;2720;52.396;10.064;2022-10-16T10:09:04;1.50;;;0.70;;
5393;SDS011;2720;52.396;10.064;2022-10-16T10:11:36;0.60;;;0.60;;
5393;SDS011;2720;52.396;10.064;2022-10-16T10:14:09;0.73;;;0.67;;
5393;SDS011;2720;52.396;10.064;2022-10-16T10:16:44;0.40;;;0.40;;
5393;SDS011;2720;52.396;10.064;2022-10-16T10:19:15;0.60;;;0.60;;
5393;SDS011;2720;52.396;10.064;2022-10-16T10:21:44;1.07;;;0.70;;
5393;SDS011;2720;52.396;10.064;2022-10-16T10:24:12;0.50;;;0.50;;
5393;SDS011;2720;52.396;10.064;2022-10-16T10:26:41;1.70;;;0.70;;
5393;SDS011;2720;52.396;10.064;2022-10-16T10:29:17;2.00;;;1.07;;
5393;SDS011;2720;52.396;10.064;2022-10-16T10:31:52;1.47;;;1.17;;
5393;SDS011;2720;52.396;10.064;2022-10-16T10:34:33;1.73;;;0.63;;
5393;SDS011;2720;52.396;10.064;2022-10-16T10:37:11;1.27;;;0.47;;
5393;SDS011;2720;52.396;10.064;2022-10-16T10:39:50;2.40;;;0.60;;
5393;SDS011;2720;52.396;10.064;2022-10-16T10:42:22;1.83;;;0.60;;
5393;SDS011;2720;52.396;10.064;2022-10-16T10:45:03;2.30;;;0.67;;
5393;SDS011;2720;52.396;10.064;2022-10-16T10:47:45;2.40;;;0.60;;
5393;SDS011;2720;52.396;10.064;2022-10-16T10:50:20;1.90;;;0.50;;
5393;SDS011;2720;52.396;10.064;2022-10-16T10:52:56;2.70;;;0.63;;
5393;SDS011;2720;52.396;10.064;2022-10-16T10:55:31;1.10;;;0.40;;
5393;SDS011;2720;52.396;10.064;2022-10-16T11:01:07;1.30;;;0.70;;
5393;SDS011;2720;52.396;10.064;2022-10-16T11:03:43;1.03;;;0.83;;
5393;SDS011;2720;52.396;10.064;2022-10-16T11:06:25;1.33;;;0.67;;
5393;SDS011;2720;52.396;10.064;2022-10-16T11:08:57;3.13;;;0.50;;
5393;SDS011;2720;52.396;10.064;2022-10-16T11:11:29;0.80;;;0.43;;
5393;SDS011;2720;52.396;10.064;2022-10-16T11:14:02;1.17;;;0.60;;
5393;SDS011;2720;52.396;10.064;2022-10-16T11:16:35;1.33;;;0.77;;
5393;SDS011;2720;52.396;10.064;2022-10-16T11:19:14;4.47;;;0.80;;
5393;SDS011;2720;52.396;10.064;2022-10-16T11:21:54;5.50;;;1.00;;
5393;SDS011;2720;52.396;10.064;2022-10-16T11:24:35;4.93;;;0.80;;
5393;SDS011;2720;52.396;10.064;2022-10-16T11:27:10;2.20;;;0.60;;
5393;SDS011;2720;52.396;10.064;2022-10-16T11:29:43;1.30;;;0.60;;
5393;SDS011;2720;52.396;10.064;2022-10-16T11:32:18;3.83;;;0.50;;
5393;SDS011;2720;52.396;10.064;2022-10-16T11:34:49;3.03;;;0.63;;
5393;SDS011;2720;52.396;10.064;2022-10-16T11:37:23;1.70;;;0.60;;
5393;SDS011;2720;52.396;10.064;2022-10-16T11:39:57;0.53;;;0.40;;
5393;SDS011;2720;52.396;10.064;2022-10-16T11:42:32;4.07;;;0.73;;
5393;SDS011;2720;52.396;10.064;2022-10-16T11:45:07;1.43;;;0.57;;
5393;SDS011;2720;52.396;10.064;2022-10-16T11:47:48;3.03;;;0.63;;
5393;SDS011;2720;52.396;10.064;2022-10-16T11:50:22;5.63;;;0.70;;
5393;SDS011;2720;52.396;10.064;2022-10-16T11:52:55;5.80;;;0.97;;
5393;SDS011;2720;52.396;10.064;2022-10-16T11:55:29;10.47;;;1.07;;
5393;SDS011;2720;52.396;10.064;2022-10-16T11:58:01;1.27;;;0.60;;
5393;SDS011;2720;52.396;10.064;2022-10-16T12:00:33;1.47;;;0.60;;
5393;SDS011;2720;52.396;10.064;2022-10-16T12:03:08;3.23;;;1.50;;
5393;SDS011;2720;52.396;10.064;2022-10-16T12:05:50;1.17;;;0.70;;
5393;SDS011;2720;52.396;10.064;2022-10-16T12:08:24;4.17;;;0.70;;
5393;SDS011;2720;52.396;10.064;2022-10-16T12:10:53;1.03;;;0.40;;
5393;SDS011;2720;52.396;10.064;2022-10-16T12:13:32;3.10;;;0.60;;
5393;SDS011;2720;52.396;10.064;2022-10-16T12:16:04;4.93;;;0.43;;
5393;SDS011;2720;52.396;10.064;2022-10-16T12:18:49;1.90;;;0.37;;
5393;SDS011;2720;52.396;10.064;2022-10-16T12:21:29;2.20;;;0.40;;
5393;SDS011;2720;52.396;10.064;2022-10-16T12:23:58;0.60;;;0.40;;
5393;SDS011;2720;52.396;10.064;2022-10-16T12:26:31;2.10;;;0.47;;
5393;SDS011;2720;52.396;10.064;2022-10-16T12:29:11;1.13;;;0.50;;
5393;SDS011;2720;52.396;10.064;2022-10-16T12:31:43;0.87;;;0.60;;
5393;SDS011;2720;52.396;10.064;2022-10-16T12:34:16;1.53;;;0.30;;
5393;SDS011;2720;52.396;10.064;2022-10-16T12:36:49;1.17;;;0.40;;
5393;SDS011;2720;52.396;10.064;2022-10-16T12:39:20;0.50;;;0.30;;
5393;SDS011;2720;52.396;10.064;2022-10-16T12:41:59;2.80;;;0.40;;
5393;SDS011;2720;52.396;10.064;2022-10-16T12:44:31;1.10;;;0.50;;
5393;SDS011;2720;52.396;10.064;2022-10-16T12:46:59;3.20;;;0.40;;
5393;SDS011;2720;52.396;10.064;2022-10-16T12:49:30;0.70;;;0.40;;
5393;SDS011;2720;52.396;10.064;2022-10-16T12:51:59;0.67;;;0.40;;
5393;SDS011;2720;52.396;10.064;2022-10-16T12:54:27;1.27;;;0.60;;
5393;SDS011;2720;52.396;10.064;2022-10-16T12:57:07;1.83;;;0.50;;
5393;SDS011;2720;52.396;10.064;2022-10-16T12:59:48;2.83;;;0.53;;
5393;SDS011;2720;52.396;10.064;2022-10-16T13:05:38;2.30;;;0.50;;
5393;SDS011;2720;52.396;10.064;2022-10-16T13:08:23;1.43;;;0.50;;
5393;SDS011;2720;52.396;10.064;2022-10-16T13:11:05;0.73;;;0.50;;
5393;SDS011;2720;52.396;10.064;2022-10-16T13:13:45;4.17;;;0.80;;
5393;SDS011;2720;52.396;10.064;2022-10-16T13:16:25;2.00;;;0.60;;
5393;SDS011;2720;52.396;10.064;2022-10-16T13:19:01;0.40;;;0.30;;
5393;SDS011;2720;52.396;10.064;2022-10-16T13:21:39;0.70;;;0.50;;
5393;SDS011;2720;52.396;10.064;2022-10-16T13:24:23;8.40;;;0.67;;
5393;SDS011;2720;52.396;10.064;2022-10-16T13:27:01;4.70;;;0.40;;
5393;SDS011;2720;52.396;10.064;2022-10-16T13:29:36;0.77;;;0.40;;
5393;SDS011;2720;52.396;10.064;2022-10-16T13:32:07;1.20;;;0.40;;
5393;SDS011;2720;52.396;10.064;2022-10-16T13:34:43;1.97;;;0.37;;
5393;SDS011;2720;52.396;10.064;2022-10-16T13:37:19;1.90;;;0.43;;
5393;SDS011;2720;52.396;10.064;2022-10-16T13:39:47;4.20;;;0.50;;
5393;SDS011;2720;52.396;10.064;2022-10-16T13:42:18;1.10;;;0.50;;
5393;SDS011;2720;52.396;10.064;2022-10-16T13:44:50;1.93;;;0.63;;
5393;SDS011;2720;52.396;10.064;2022-10-16T13:47:19;1.73;;;0.50;;
5393;SDS011;2720;52.396;10.064;2022-10-16T13:49:58;0.73;;;0.40;;
5393;SDS011;2720;52.396;10.064;2022-10-16T13:52:26;4.17;;;0.67;;
5393;SDS011;2720;52.396;10.064;2022-10-16T13:54:54;0.80;;;0.67;;
5393;SDS011;2720;52.396;10.064;2022-10-16T13:57:22;6.00;;;0.60;;
5393;SDS011;2720;52.396;10.064;2022-10-16T13:59:51;1.23;;;0.63;;
5393;SDS011;2720;52.396;10.064;2022-10-16T14:02:20;0.40;;;0.30;;
5393;SDS011;2720;52.396;10.064;2022-10-16T14:04:51;0.50;;;0.50;;
5393;SDS011;2720;52.396;10.064;2022-10-16T14:07:20;2.03;;;0.70;;
5393;SDS011;2720;52.396;10.064;2022-10-16T14:09:50;1.30;;;0.40;;
5393;SDS011;2720;52.396;10.064;2022-10-16T14:12:18;1.33;;;0.60;;
5393;SDS011;2720;52.396;10.064;2022-10-16T14:14:46;2.00;;;0.50;;
5393;SDS011;2720;52.396;10.064;2022-10-16T14:17:18;1.37;;;0.50;;
5393;SDS011;2720;52.396;10.064;2022-10-16T14:19:48;1.07;;;0.40;;
5393;SDS011;2720;52.396;10.064;2022-10-16T14:22:28;0.60;;;0.50;;
5393;SDS011;2720;52.396;10.064;2022-10-16T14:24:58;0.40;;;0.30;;
5393;SDS011;2720;52.396;10.064;2022-10-16T14:27:27;2.00;;;0.47;;
5393;SDS011;2720;52.396;10.064;2022-10-16T14:30:08;3.90;;;0.47;;
5393;SDS011;2720;52.396;10.064;2022-10-16T14:32:53;0.87;;;0.57;;
5393;SDS011;2720;52.396;10.064;2022-10-16T14:35:26;2.87;;;0.50;;
5393;SDS011;2720;52.396;10.064;2022-10-16T14:37:55;1.10;;;0.50;;
5393;SDS011;2720;52.396;10.064;2022-10-16T14:40:24;3.47;;;0.63;;
5393;SDS011;2720;52.396;10.064;2022-10-16T14:42:52;2.03;;;0.60;;
5393;SDS011;2720;52.396;10.064;2022-10-16T14:45:20;6.57;;;0.50;;
5393;SDS011;2720;52.396;10.064;2022-10-16T14:47:50;4.57;;;1.00;;
5393;SDS011;2720;52.396;10.064;2022-10-16T14:50:20;1.87;;;0.90;;
5393;SDS011;2720;52.396;10.064;2022-10-16T14:52:47;4.33;;;0.90;;
5393;SDS011;2720;52.396;10.064;2022-10-16T14:55:14;4.70;;;0.60;;
5393;SDS011;2720;52.396;10.064;2022-10-16T14:57:42;5.60;;;0.90;;
5393;SDS011;2720;52.396;10.064;2022-10-16T15:00:11;5.60;;;1.10;;
5393;SDS011;2720;52.396;10.064;2022-10-16T15:02:42;13.27;;;1.83;;
5393;SDS011;2720;52.396;10.064;2022-10-16T15:05:15;3.13;;;2.33;;
5393;SDS011;2720;52.396;10.064;2022-10-16T15:07:45;5.60;;;0.83;;
5393;SDS011;2720;52.396;10.064;2022-10-16T15:10:14;1.97;;;0.80;;
5393;SDS011;2720;52.396;10.064;2022-10-16T15:12:41;0.90;;;0.40;;
5393;SDS011;2720;52.396;10.064;2022-10-16T15:15:15;0.70;;;0.50;;
5393;SDS011;2720;52.396;10.064;2022-10-16T15:17:59;1.47;;;0.60;;
5393;SDS011;2720;52.396;10.064;2022-10-16T15:20:29;0.90;;;0.43;;
5393;SDS011;2720;52.396;10.064;2022-10-16T15:22:59;1.13;;;0.40;;
5393;SDS011;2720;52.396;10.064;2022-10-16T15:25:31;5.73;;;0.80;;
5393;SDS011;2720;52.396;10.064;2022-10-16T15:28:00;2.77;;;0.40;;
5393;SDS011;2720;52.396;10.064;2022-10-16T15:30:29;2.57;;;0.73;;